Time,TemperatureF,DewpointF,PressureIn,WindDirection,WindDirectionDegrees,WindSpeedMPH,WindSpeedGustMPH,Humidity,HourlyPrecipIn,Conditions,Clouds,dailyrainin,SoftwareType,DateUTC
2013-01-29 00:00:00,41.4,37.5,28.87,NW,316,16.0,17.0,86,0.00,RA,,0.00,WeatherDisplay:10.37,2013-01-29 00:00:00,
2013-01-29 00:10:00,41.5,38.0,28.88,NW,316,16.0,17.0,87,0.00,CLR,,0.00,WeatherDisplay:10.37,2013-01-29 00:10:00,
2013-01-29 00:20:00,41.4,37.9,28.88,NW,316,16.0,17.0,87,0.00,CLR,,0.00,WeatherDisplay:10.37,2013-01-29 00:20:00,
2013-01-29 00:30:00,41.2,37.6,28.88,NW,316,16.0,17.0,87,0.00,CLR,,0.00,WeatherDisplay:10.37,2013-01-29 00:30:00,
2013-01-29 00:40:00,40.8,36.9,28.88,NW,316,16.0,17.0,86,0.00,CLR,,0.00,WeatherDisplay:10.37,2013-01-29 00:40:00,
2013-01-29 00:50:00,41.0,37.1,28.90,NW,316,16.0,17.0,86,0.00,CLR,,0.00,WeatherDisplay:10.37,2013-01-29 00:50:00,
2013-01-29 01:00:00,41.2,37.3,28.90,NW,316,16.0,17.0,86,0.00,CLR,,0.00,WeatherDisplay:10.37,2013-01-29 01:00:00,
2013-01-29 01:10:00,41.4,37.5,28.92,NW,316,16.0,17.0,86,0.00,CLR,,0.00,WeatherDisplay:10.37,2013-01-29 01:10:00,
2013-01-29 01:20:00,41.5,37.6,28.92,NW,316,16.0,17.0,86,0.00,CLR,,0.00,WeatherDisplay:10.37,2013-01-29 01:20:00,
2013-01-29 01:30:00,41.4,37.5,28.94,NW,316,16.0,17.0,86,0.02,RA,,0.02,WeatherDisplay:10.37,2013-01-29 01:30:00,
2013-01-29 01:40:00,41.5,37.7,28.95,NW,316,16.0,17.0,86,0.00,,,0.02,WeatherDisplay:10.37,2013-01-29 01:40:00,
2013-01-29 01:50:00,41.3,37.1,28.95,NW,316,16.0,17.0,85,0.00,CLR,,0.02,WeatherDisplay:10.37,2013-01-29 01:50:00,
2013-01-29 02:00:00,41.5,37.4,28.96,NW,316,16.0,17.0,85,0.00,CLR,,0.02,WeatherDisplay:10.37,2013-01-29 02:00:00,
2013-01-29 02:10:00,41.5,37.1,28.97,NW,316,16.0,17.0,84,0.00,CLR,,0.02,WeatherDisplay:10.37,2013-01-29 02:10:00,
2013-01-29 02:20:00,41.4,36.7,28.99,NW,316,16.0,17.0,83,0.00,CLR,,0.02,WeatherDisplay:10.37,2013-01-29 02:20:00,
2013-01-29 02:30:00,41.5,36.8,28.99,NW,316,16.0,17.0,83,0.00,CLR,,0.02,WeatherDisplay:10.37,2013-01-29 02:30:00,
2013-01-29 02:40:00,41.5,37.1,29.00,NW,316,16.0,17.0,84,0.00,CLR,,0.02,WeatherDisplay:10.37,2013-01-29 02:40:00,
2013-01-29 02:50:00,41.2,36.7,29.01,NW,316,16.0,17.0,84,0.00,CLR,,0.02,WeatherDisplay:10.37,2013-01-29 02:50:00,
2013-01-29 03:00:00,41.3,36.5,29.01,NW,316,16.0,17.0,83,0.00,CLR,,0.02,WeatherDisplay:10.37,2013-01-29 03:00:00,
2013-01-29 03:10:00,41.0,35.6,29.03,NW,316,16.0,17.0,81,0.00,CLR,,0.02,WeatherDisplay:10.37,2013-01-29 03:10:00,
2013-01-29 03:20:00,41.0,35.3,29.03,NW,316,16.0,17.0,80,0.00,CLR,,0.02,WeatherDisplay:10.37,2013-01-29 03:20:00,
2013-01-29 03:30:00,40.6,34.3,29.03,NW,316,16.0,17.0,78,0.00,CLR,,0.02,WeatherDisplay:10.37,2013-01-29 03:30:00,
2013-01-29 03:40:00,40.3,33.6,29.05,NW,316,16.0,17.0,77,0.00,CLR,,0.02,WeatherDisplay:10.37,2013-01-29 03:40:00,
2013-01-29 03:50:00,40.0,33.4,29.06,NW,316,16.0,17.0,77,0.00,CLR,,0.02,WeatherDisplay:10.37,2013-01-29 03:50:00,
2013-01-29 04:00:00,39.4,33.1,29.08,NW,316,16.0,17.0,78,0.00,CLR,,0.02,WeatherDisplay:10.37,2013-01-29 04:00:00,
2013-01-29 04:10:00,39.4,33.4,29.07,NW,316,16.0,17.0,79,0.00,CLR,,0.02,WeatherDisplay:10.37,2013-01-29 04:10:00,
2013-01-29 04:20:00,39.7,34.1,29.08,NW,316,16.0,17.0,80,0.00,CLR,,0.02,WeatherDisplay:10.37,2013-01-29 04:20:00,
2013-01-29 04:30:00,40.0,34.3,29.09,NW,316,16.0,17.0,80,0.00,CLR,,0.02,WeatherDisplay:10.37,2013-01-29 04:30:00,
2013-01-29 04:40:00,39.9,34.2,29.09,NW,316,16.0,17.0,80,0.00,CLR,,0.02,WeatherDisplay:10.37,2013-01-29 04:40:00,
2013-01-29 04:50:00,39.6,33.9,29.10,NW,316,16.0,17.0,80,0.00,CLR,,0.02,WeatherDisplay:10.37,2013-01-29 04:50:00,
2013-01-29 05:00:00,39.8,34.5,29.11,NW,316,16.0,17.0,81,0.00,CLR,,0.02,WeatherDisplay:10.37,2013-01-29 05:00:00,
2013-01-29 05:10:00,39.8,34.1,29.11,NW,316,16.0,17.0,80,0.00,CLR,,0.02,WeatherDisplay:10.37,2013-01-29 05:10:00,
2013-01-29 05:20:00,40.4,35.0,29.12,NW,316,16.0,17.0,81,0.00,CLR,,0.02,WeatherDisplay:10.37,2013-01-29 05:20:00,
2013-01-29 05:30:00,40.5,34.8,29.12,NW,316,16.0,17.0,80,0.00,CLR,,0.02,WeatherDisplay:10.37,2013-01-29 05:30:00,
2013-01-29 05:40:00,40.5,35.1,29.12,NW,316,16.0,17.0,81,0.00,CLR,,0.02,WeatherDisplay:10.37,2013-01-29 05:40:00,
2013-01-29 05:50:00,40.4,35.0,29.12,NW,316,16.0,17.0,81,0.00,CLR,,0.02,WeatherDisplay:10.37,2013-01-29 05:50:00,
2013-01-29 06:00:00,40.5,35.1,29.13,NW,316,16.0,17.0,81,0.00,CLR,,0.02,WeatherDisplay:10.37,2013-01-29 06:00:00,
2013-01-29 06:10:00,40.5,34.8,29.14,NW,316,16.0,17.0,80,0.00,CLR,,0.02,WeatherDisplay:10.37,2013-01-29 06:10:00,
2013-01-29 06:20:00,40.3,34.6,29.15,NW,316,16.0,17.0,80,0.00,CLR,,0.02,WeatherDisplay:10.37,2013-01-29 06:20:00,
2013-01-29 06:30:00,40.5,34.8,29.16,NW,316,16.0,17.0,80,0.00,CLR,,0.02,WeatherDisplay:10.37,2013-01-29 06:30:00,
2013-01-29 06:40:00,40.5,34.8,29.16,NW,316,16.0,17.0,80,0.00,CLR,,0.02,WeatherDisplay:10.37,2013-01-29 06:40:00,
2013-01-29 06:50:00,40.6,35.0,29.16,NW,316,16.0,17.0,80,0.00,CLR,,0.02,WeatherDisplay:10.37,2013-01-29 06:50:00,
2013-01-29 07:00:00,40.5,34.8,29.16,NW,316,16.0,17.0,80,0.00,CLR,,0.02,WeatherDisplay:10.37,2013-01-29 07:00:00,
2013-01-29 07:10:00,39.9,34.2,29.16,WNW,289,7.0,17.0,80,0.00,CLR,,0.02,WeatherDisplay:10.37,2013-01-29 07:10:00,
2013-01-29 07:20:00,40.5,34.8,29.16,WNW,287,7.0,14.0,80,0.00,CLR,,0.02,WeatherDisplay:10.37,2013-01-29 07:20:00,
2013-01-29 07:30:00,40.8,35.4,29.17,WNW,294,7.0,7.0,81,0.00,CLR,,0.02,WeatherDisplay:10.37,2013-01-29 07:30:00,
2013-01-29 07:40:00,40.6,35.0,29.17,West,280,7.0,20.0,80,0.00,CLR,,0.02,WeatherDisplay:10.37,2013-01-29 07:40:00,
2013-01-29 07:50:00,40.6,35.0,29.17,West,276,5.0,14.0,80,0.00,CLR,,0.02,WeatherDisplay:10.37,2013-01-29 07:50:00,
2013-01-29 08:00:00,40.3,34.3,29.18,WSW,253,9.0,12.0,79,0.00,CLR,,0.02,WeatherDisplay:10.37,2013-01-29 08:00:00,
2013-01-29 08:10:00,40.3,34.6,29.19,SW,230,7.0,16.0,80,0.00,CLR,,0.02,WeatherDisplay:10.37,2013-01-29 08:10:00,
2013-01-29 08:20:00,40.5,34.8,29.18,SSW,212,2.0,16.0,80,0.00,CLR,,0.02,WeatherDisplay:10.37,2013-01-29 08:20:00,
2013-01-29 08:30:00,40.6,35.0,29.20,SW,222,3.0,10.0,80,0.00,CLR,,0.02,WeatherDisplay:10.37,2013-01-29 08:30:00,
2013-01-29 08:40:00,40.6,35.0,29.20,West,263,5.0,6.0,80,0.00,CLR,,0.02,WeatherDisplay:10.37,2013-01-29 08:40:00,
2013-01-29 08:50:00,40.6,35.0,29.20,West,278,3.0,7.0,80,0.00,CLR,,0.02,WeatherDisplay:10.37,2013-01-29 08:50:00,
2013-01-29 09:00:00,40.7,35.0,29.19,WSW,256,2.0,11.0,80,0.00,CLR,,0.02,WeatherDisplay:10.37,2013-01-29 09:00:00,
2013-01-29 09:10:00,41.2,35.5,29.18,SW,220,9.0,16.0,80,0.00,CLR,,0.02,WeatherDisplay:10.37,2013-01-29 09:10:00,
2013-01-29 09:20:00,41.2,35.5,29.19,SW,218,9.0,16.0,80,0.00,CLR,,0.02,WeatherDisplay:10.37,2013-01-29 09:20:00,
2013-01-29 09:30:00,41.0,35.3,29.18,SW,218,12.0,18.0,80,0.00,CLR,,0.02,WeatherDisplay:10.37,2013-01-29 09:30:00,
2013-01-29 09:40:00,40.6,35.0,29.18,WSW,239,8.0,18.0,80,0.00,CLR,,0.02,WeatherDisplay:10.37,2013-01-29 09:40:00,
2013-01-29 09:50:00,40.6,34.9,29.17,WSW,248,5.0,10.0,80,0.00,CLR,,0.02,WeatherDisplay:10.37,2013-01-29 09:50:00,
2013-01-29 10:00:00,40.5,34.8,29.16,WSW,246,1.0,13.0,80,0.00,CLR,,0.02,WeatherDisplay:10.37,2013-01-29 10:00:00,
2013-01-29 10:10:00,40.6,35.0,29.17,SW,220,6.0,12.0,80,0.00,CLR,,0.02,WeatherDisplay:10.37,2013-01-29 10:10:00,
2013-01-29 10:20:00,41.2,35.2,29.17,SSW,201,3.0,11.0,79,0.00,CLR,,0.02,WeatherDisplay:10.37,2013-01-29 10:20:00,
2013-01-29 10:30:00,41.2,35.2,29.17,South,174,6.0,9.0,79,0.00,CLR,,0.02,WeatherDisplay:10.37,2013-01-29 10:30:00,
2013-01-29 10:40:00,41.7,35.3,29.16,SSW,208,5.0,12.0,78,0.00,CLR,,0.02,WeatherDisplay:10.37,2013-01-29 10:40:00,
2013-01-29 10:50:00,41.7,35.0,29.16,West,279,2.0,11.0,77,0.00,CLR,,0.02,WeatherDisplay:10.37,2013-01-29 10:50:00,
2013-01-29 11:00:00,41.9,35.2,29.16,WNW,292,5.0,10.0,77,0.00,CLR,,0.02,WeatherDisplay:10.37,2013-01-29 11:00:00,
2013-01-29 11:10:00,42.3,35.6,29.13,WNW,299,3.0,9.0,77,0.00,CLR,,0.02,WeatherDisplay:10.37,2013-01-29 11:10:00,
2013-01-29 11:20:00,42.7,36.0,29.14,WSW,256,1.0,5.0,77,0.00,CLR,,0.02,WeatherDisplay:10.37,2013-01-29 11:20:00,
2013-01-29 11:30:00,43.0,35.9,29.14,SSW,208,3.0,14.0,76,0.00,CLR,,0.02,WeatherDisplay:10.37,2013-01-29 11:30:00,
2013-01-29 11:40:00,43.0,35.6,29.12,SW,225,8.0,20.0,75,0.00,CLR,,0.02,WeatherDisplay:10.37,2013-01-29 11:40:00,
2013-01-29 11:50:00,42.5,35.1,29.12,SW,214,5.0,20.0,75,0.00,CLR,,0.02,WeatherDisplay:10.37,2013-01-29 11:50:00,
2013-01-29 12:00:00,42.6,35.2,29.11,SW,217,6.0,13.0,75,0.00,CLR,,0.02,WeatherDisplay:10.37,2013-01-29 12:00:00,
2013-01-29 12:10:00,43.0,35.6,29.10,SW,216,7.0,12.0,75,0.00,CLR,,0.02,WeatherDisplay:10.37,2013-01-29 12:10:00,
2013-01-29 12:20:00,43.2,35.8,29.10,WSW,247,2.0,8.0,75,0.00,CLR,,0.02,WeatherDisplay:10.37,2013-01-29 12:20:00,
2013-01-29 12:30:00,43.0,35.6,29.10,SE,142,5.0,12.0,75,0.00,CLR,,0.02,WeatherDisplay:10.37,2013-01-29 12:30:00,
2013-01-29 12:40:00,41.9,34.6,29.10,ESE,105,5.0,10.0,75,0.00,CLR,,0.02,WeatherDisplay:10.37,2013-01-29 12:40:00,
2013-01-29 12:50:00,41.0,34.3,29.09,ESE,113,6.0,10.0,77,0.00,CLR,,0.02,WeatherDisplay:10.37,2013-01-29 12:50:00,
2013-01-29 13:00:00,40.4,34.1,29.08,ESE,122,2.0,6.0,78,0.02,RA,,0.04,WeatherDisplay:10.37,2013-01-29 13:00:00,
2013-01-29 13:10:00,39.7,33.8,29.07,East,89,5.0,7.0,79,0.02,RA,,0.06,WeatherDisplay:10.37,2013-01-29 13:10:00,
2013-01-29 13:20:00,39.6,33.9,29.06,East,93,5.0,8.0,80,0.02,RA,,0.08,WeatherDisplay:10.37,2013-01-29 13:20:00,
2013-01-29 13:30:00,39.6,34.2,29.03,ESE,106,3.0,8.0,81,0.00,CLR,,0.08,WeatherDisplay:10.37,2013-01-29 13:30:00,
2013-01-29 13:40:00,39.6,34.5,29.02,ESE,102,6.0,10.0,82,0.02,RA,,0.10,WeatherDisplay:10.37,2013-01-29 13:40:00,
2013-01-29 13:50:00,39.9,35.1,29.00,East,91,6.0,15.0,83,0.02,RA,,0.12,WeatherDisplay:10.37,2013-01-29 13:50:00,
2013-01-29 14:00:00,39.8,35.4,29.00,ESE,123,6.0,11.0,84,0.02,RA,,0.14,WeatherDisplay:10.37,2013-01-29 14:00:00,
2013-01-29 14:10:00,39.6,35.1,28.98,ESE,107,5.0,11.0,84,0.00,CLR,,0.14,WeatherDisplay:10.37,2013-01-29 14:10:00,
2013-01-29 14:20:00,39.6,35.4,28.97,ESE,104,3.0,11.0,85,0.02,RA,,0.16,WeatherDisplay:10.37,2013-01-29 14:20:00,
2013-01-29 14:30:00,39.6,35.4,28.97,East,97,1.0,11.0,85,0.02,RA,,0.18,WeatherDisplay:10.37,2013-01-29 14:30:00,
2013-01-29 14:40:00,39.8,35.7,28.95,East,96,3.0,10.0,85,0.02,RA,,0.20,WeatherDisplay:10.37,2013-01-29 14:40:00,
2013-01-29 14:50:00,40.1,36.2,28.94,ESE,103,3.0,11.0,86,0.00,CLR,,0.20,WeatherDisplay:10.37,2013-01-29 14:50:00,
2013-01-29 15:00:00,40.6,36.8,28.93,East,96,3.0,12.0,86,0.02,RA,,0.22,WeatherDisplay:10.37,2013-01-29 15:00:00,
2013-01-29 15:10:00,40.7,37.2,28.93,East,92,3.0,8.0,87,0.02,RA,,0.24,WeatherDisplay:10.37,2013-01-29 15:10:00,
2013-01-29 15:20:00,41.2,37.6,28.92,East,92,3.0,9.0,87,0.02,RA,,0.26,WeatherDisplay:10.37,2013-01-29 15:20:00,
2013-01-29 15:30:00,41.2,37.6,28.90,East,101,3.0,6.0,87,0.02,RA,,0.28,WeatherDisplay:10.37,2013-01-29 15:30:00,
2013-01-29 15:40:00,42.3,38.7,28.90,SSE,165,5.0,9.0,87,0.00,CLR,,0.28,WeatherDisplay:10.37,2013-01-29 15:40:00,
2013-01-29 15:50:00,43.5,39.8,28.88,SW,224,8.0,12.0,87,0.00,CLR,,0.28,WeatherDisplay:10.37,2013-01-29 15:50:00,
2013-01-29 16:00:00,44.6,41.0,28.87,SSW,208,16.0,16.0,87,0.00,CLR,,0.28,WeatherDisplay:10.37,2013-01-29 16:00:00,
2013-01-29 16:10:00,45.5,42.2,28.87,SW,218,7.0,16.0,88,0.00,CLR,,0.28,WeatherDisplay:10.37,2013-01-29 16:10:00,
2013-01-29 16:20:00,46.1,43.1,28.86,SW,218,7.0,14.0,89,0.00,CLR,,0.28,WeatherDisplay:10.37,2013-01-29 16:20:00,
2013-01-29 16:30:00,46.6,43.5,28.84,SSW,204,8.0,17.0,89,0.00,CLR,,0.28,WeatherDisplay:10.37,2013-01-29 16:30:00,
2013-01-29 16:40:00,47.0,43.9,28.83,SW,224,12.0,14.0,89,0.00,CLR,,0.28,WeatherDisplay:10.37,2013-01-29 16:40:00,
2013-01-29 16:50:00,47.7,44.6,28.83,WSW,249,16.0,16.0,89,0.00,CLR,,0.28,WeatherDisplay:10.37,2013-01-29 16:50:00,
2013-01-29 17:00:00,48.4,45.3,28.84,WSW,249,16.0,16.0,89,0.00,CLR,,0.28,WeatherDisplay:10.37,2013-01-29 17:00:00,
2013-01-29 17:10:00,48.9,45.8,28.84,NW,305,16.0,16.0,89,0.06,RA,,0.34,WeatherDisplay:10.37,2013-01-29 17:10:00,
2013-01-29 17:20:00,46.7,43.3,28.86,WNW,296,17.0,25.0,88,0.02,RA,,0.36,WeatherDisplay:10.37,2013-01-29 17:20:00,
2013-01-29 17:30:00,46.0,41.2,28.86,West,273,12.0,24.0,83,0.00,CLR,,0.36,WeatherDisplay:10.37,2013-01-29 17:30:00,
2013-01-29 17:40:00,45.5,39.7,28.86,West,268,7.0,15.0,80,0.00,CLR,,0.36,WeatherDisplay:10.37,2013-01-29 17:40:00,
2013-01-29 17:50:00,45.1,39.0,28.88,WSW,250,8.0,18.0,79,0.00,CLR,,0.36,WeatherDisplay:10.37,2013-01-29 17:50:00,
2013-01-29 18:00:00,45.1,38.7,28.88,West,264,10.0,23.0,78,0.00,CLR,,0.36,WeatherDisplay:10.37,2013-01-29 18:00:00,
2013-01-29 18:10:00,44.8,38.0,28.87,West,268,12.0,24.0,77,0.00,CLR,,0.36,WeatherDisplay:10.37,2013-01-29 18:10:00,
2013-01-29 18:20:00,44.6,37.2,28.88,WSW,255,13.0,20.0,75,0.00,CLR,,0.36,WeatherDisplay:10.37,2013-01-29 18:20:00,
2013-01-29 18:30:00,44.2,35.8,28.88,West,266,9.0,29.0,72,0.00,CLR,,0.36,WeatherDisplay:10.37,2013-01-29 18:30:00,
2013-01-29 18:40:00,44.1,34.9,28.88,West,271,12.0,17.0,70,0.00,CLR,,0.36,WeatherDisplay:10.37,2013-01-29 18:40:00,
2013-01-29 18:50:00,43.3,34.2,28.90,West,271,10.0,22.0,70,0.00,CLR,,0.36,WeatherDisplay:10.37,2013-01-29 18:50:00,
2013-01-29 19:00:00,42.8,33.3,28.89,WSW,241,8.0,36.0,69,0.00,CLR,,0.36,WeatherDisplay:10.37,2013-01-29 19:00:00,
2013-01-29 19:10:00,42.6,33.2,28.89,West,264,10.0,23.0,69,0.00,CLR,,0.36,WeatherDisplay:10.37,2013-01-29 19:10:00,
2013-01-29 19:20:00,42.8,33.0,28.88,WSW,250,8.0,23.0,68,0.00,CLR,,0.36,WeatherDisplay:10.37,2013-01-29 19:20:00,
2013-01-29 19:30:00,42.9,32.6,28.89,WSW,256,14.0,25.0,67,0.00,CLR,,0.36,WeatherDisplay:10.37,2013-01-29 19:30:00,
2013-01-29 19:40:00,42.1,32.3,28.89,West,272,17.0,31.0,68,0.00,CLR,,0.36,WeatherDisplay:10.37,2013-01-29 19:40:00,
2013-01-29 19:50:00,41.2,32.8,28.89,West,267,10.0,29.0,72,0.00,CLR,,0.36,WeatherDisplay:10.37,2013-01-29 19:50:00,
2013-01-29 20:00:00,41.2,32.8,28.90,WSW,249,8.0,21.0,72,0.02,RA,,0.38,WeatherDisplay:10.37,2013-01-29 20:00:00,
2013-01-29 20:10:00,40.8,32.5,28.90,WSW,256,9.0,22.0,72,0.00,CLR,,0.38,WeatherDisplay:10.37,2013-01-29 20:10:00,
2013-01-29 20:20:00,40.6,32.7,28.90,WSW,255,9.0,25.0,73,0.00,CLR,,0.38,WeatherDisplay:10.37,2013-01-29 20:20:00,
2013-01-29 20:30:00,40.6,33.0,28.91,West,265,16.0,33.0,74,0.00,CLR,,0.38,WeatherDisplay:10.37,2013-01-29 20:30:00,
2013-01-29 20:40:00,40.5,33.2,28.91,SW,236,13.0,33.0,75,0.00,CLR,,0.38,WeatherDisplay:10.37,2013-01-29 20:40:00,
2013-01-29 20:50:00,40.5,33.5,28.91,West,274,8.0,17.0,76,0.00,CLR,,0.38,WeatherDisplay:10.37,2013-01-29 20:50:00,
2013-01-29 21:00:00,40.6,33.7,28.92,West,272,10.0,17.0,76,0.00,CLR,,0.38,WeatherDisplay:10.37,2013-01-29 21:00:00,
2013-01-29 21:10:00,40.9,33.6,28.92,West,274,8.0,23.0,75,0.00,CLR,,0.38,WeatherDisplay:10.37,2013-01-29 21:10:00,
2013-01-29 21:20:00,41.0,33.7,28.92,WSW,240,15.0,28.0,75,0.00,CLR,,0.38,WeatherDisplay:10.37,2013-01-29 21:20:00,
2013-01-29 21:30:00,41.0,33.7,28.93,West,269,8.0,15.0,75,0.00,CLR,,0.38,WeatherDisplay:10.37,2013-01-29 21:30:00,
2013-01-29 21:40:00,41.2,33.2,28.93,West,269,9.0,21.0,73,0.00,CLR,,0.38,WeatherDisplay:10.37,2013-01-29 21:40:00,
2013-01-29 21:50:00,41.2,32.8,28.94,WSW,257,8.0,19.0,72,0.00,CLR,,0.38,WeatherDisplay:10.37,2013-01-29 21:50:00,
2013-01-29 22:00:00,41.2,32.1,28.93,WSW,247,8.0,32.0,70,0.00,CLR,,0.38,WeatherDisplay:10.37,2013-01-29 22:00:00,
2013-01-29 22:10:00,41.2,32.1,28.94,WSW,254,7.0,24.0,70,0.00,CLR,,0.38,WeatherDisplay:10.37,2013-01-29 22:10:00,
2013-01-29 22:20:00,41.2,31.8,28.94,West,261,10.0,20.0,69,0.00,CLR,,0.38,WeatherDisplay:10.37,2013-01-29 22:20:00,
2013-01-29 22:30:00,41.3,31.5,28.93,WSW,249,17.0,24.0,68,0.00,CLR,,0.38,WeatherDisplay:10.37,2013-01-29 22:30:00,
2013-01-29 22:40:00,41.2,31.4,28.94,WSW,255,16.0,21.0,68,0.00,CLR,,0.38,WeatherDisplay:10.37,2013-01-29 22:40:00,
2013-01-29 22:50:00,41.2,31.4,28.94,WSW,256,9.0,23.0,68,0.00,CLR,,0.38,WeatherDisplay:10.37,2013-01-29 22:50:00,
2013-01-29 23:00:00,40.6,31.3,28.95,West,263,9.0,20.0,69,0.00,CLR,,0.38,WeatherDisplay:10.37,2013-01-29 23:00:00,
2013-01-29 23:10:00,40.7,31.0,28.95,West,273,7.0,21.0,68,0.00,CLR,,0.38,WeatherDisplay:10.37,2013-01-29 23:10:00,
2013-01-29 23:20:00,40.6,30.9,28.95,West,273,12.0,23.0,68,0.00,CLR,,0.38,WeatherDisplay:10.37,2013-01-29 23:20:00,
2013-01-29 23:30:00,40.6,31.3,28.96,West,276,12.0,21.0,69,0.00,CLR,,0.38,WeatherDisplay:10.37,2013-01-29 23:30:00,
2013-01-29 23:40:00,40.3,31.3,28.96,West,270,10.0,16.0,70,0.00,CLR,,0.38,WeatherDisplay:10.37,2013-01-29 23:40:00,
2013-01-29 23:50:00,40.3,30.9,28.97,West,277,13.0,19.0,69,0.00,CLR,,0.38,WeatherDisplay:10.37,2013-01-29 23:50:00,